Time;durP1;ratioP1;P1;durP2;ratioP2;P2;SDS_P1;SDS_P2;PMS_P1;PMS_P2;Temp;Humidity;BMP_temperature;BMP_pressure;BME280_temperature;BME280_humidity;BME280_pressure;Samples;Min_cycle;Max_cycle;Signal;HPM_P1;HPM_P2
2022/09/29 00:01:40;;;;;;;5.63;5.13;;;8.60;60.40;;;;;;5006441;28;20482;-51
2022/09/29 00:04:08;;;;;;;6.53;5.93;;;8.60;62.20;;;;;;5013541;28;21052;-52
2022/09/29 00:06:35;;;;;;;4.90;4.57;;;8.60;62.20;;;;;;5006101;28;21188;-51
2022/09/29 00:09:01;;;;;;;4.90;4.60;;;8.50;64.80;;;;;;5009743;28;20566;-51
2022/09/29 00:11:28;;;;;;;5.03;4.60;;;8.50;64.50;;;;;;5008399;28;20507;-51
2022/09/29 00:13:54;;;;;;;5.40;5.00;;;8.50;65.10;;;;;;5011750;28;20567;-51
2022/09/29 00:16:21;;;;;;;5.83;5.30;;;8.40;66.10;;;;;;5007588;28;20568;-51
2022/09/29 00:18:48;;;;;;;5.93;5.43;;;8.40;66.80;;;;;;5006038;28;20562;-51
2022/09/29 00:21:19;;;;;;;5.43;4.93;;;8.40;66.90;;;;;;5018874;28;20551;-51
2022/09/29 00:23:46;;;;;;;5.60;5.10;;;8.40;67.20;;;;;;5006410;28;20456;-51
2022/09/29 00:26:14;;;;;;;5.70;5.20;;;8.40;67.20;;;;;;5017373;28;20546;-51
2022/09/29 00:28:45;;;;;;;6.13;5.53;;;8.30;68.40;;;;;;5008425;28;20479;-51
2022/09/29 00:31:12;;;;;;;5.33;4.93;;;8.40;65.60;;;;;;5007317;28;20893;-50
2022/09/29 00:33:39;;;;;;;9.23;5.30;;;8.40;67.50;;;;;;5016336;28;21021;-51
2022/09/29 00:36:09;;;;;;;6.10;5.50;;;8.30;67.50;;;;;;5006735;28;20586;-51
2022/09/29 00:38:37;;;;;;;5.43;4.93;;;8.30;69.70;;;;;;5007053;28;21103;-52
2022/09/29 00:41:04;;;;;;;6.20;5.60;;;8.30;70.90;;;;;;5003571;28;20458;-51
2022/09/29 00:43:54;;;;;;;5.60;5.10;;;8.20;71.20;;;;;;5016003;28;20451;-50
2022/09/29 00:46:30;;;;;;;5.27;4.87;;;8.20;71.30;;;;;;5012127;28;20466;-50
2022/09/29 00:49:02;;;;;;;6.30;5.70;;;8.10;73.30;;;;;;5004319;28;20586;-50
2022/09/29 00:51:31;;;;;;;7.07;5.20;;;8.10;70.30;;;;;;5010085;28;20906;-51
2022/09/29 00:54:00;;;;;;;5.00;4.60;;;8.10;72.00;;;;;;5010169;28;21411;-51
2022/09/29 00:56:28;;;;;;;5.17;4.77;;;8.10;71.30;;;;;;5011318;28;21019;-50
2022/09/29 00:58:59;;;;;;;5.07;4.63;;;8.00;73.30;;;;;;5019930;28;20538;-51
2022/09/29 01:01:30;;;;;;;6.27;5.50;;;8.10;73.50;;;;;;5009600;28;21004;-51
2022/09/29 01:04:02;;;;;;;5.90;5.20;;;8.00;71.80;;;;;;5005599;28;20550;-51
2022/09/29 01:06:32;;;;;;;5.10;4.70;;;8.00;71.00;;;;;;5007517;28;20499;-51
2022/09/29 01:09:02;;;;;;;8.63;6.33;;;8.00;70.90;;;;;;5000338;28;20583;-51
2022/09/29 01:11:30;;;;;;;6.23;5.60;;;8.00;73.60;;;;;;5003703;28;20530;-50
2022/09/29 01:14:02;;;;;;;5.80;5.30;;;7.90;72.50;;;;;;5009962;28;20515;-51
2022/09/29 01:16:29;;;;;;;7.10;5.83;;;7.90;72.60;;;;;;5010276;28;20495;-51
2022/09/29 01:18:56;;;;;;;7.40;5.40;;;7.90;73.00;;;;;;5003401;28;20502;-52
2022/09/29 01:21:31;;;;;;;5.80;5.30;;;7.80;74.90;;;;;;5006146;28;20521;-51
2022/09/29 01:24:30;;;;;;;5.53;5.13;;;7.80;77.20;;;;;;5006264;28;20498;-51
2022/09/29 01:27:13;;;;;;;6.67;6.07;;;7.80;78.60;;;;;;4971447;28;20540;-50
2022/09/29 01:29:56;;;;;;;5.80;4.97;;;7.70;82.60;;;;;;5004098;28;20523;-51
2022/09/29 01:32:33;;;;;;;6.90;5.73;;;7.70;82.50;;;;;;5010610;28;20479;-51
2022/09/29 01:35:09;;;;;;;6.10;5.50;;;7.70;85.80;;;;;;5022482;28;20486;-50
2022/09/29 01:37:49;;;;;;;5.93;5.33;;;7.60;90.10;;;;;;5008114;28;20462;-50
2022/09/29 01:40:18;;;;;;;5.50;5.10;;;7.60;95.30;;;;;;5002934;28;20460;-50
2022/09/29 01:42:52;;;;;;;5.50;5.00;;;7.50;97.40;;;;;;5008210;28;20503;-49
2022/09/29 01:45:26;;;;;;;8.60;5.83;;;7.40;99.90;;;;;;5009410;28;20465;-50
2022/09/29 01:47:58;;;;;;;8.23;5.00;;;7.40;96.40;;;;;;5014394;28;21045;-53
2022/09/29 01:50:32;;;;;;;24.23;5.30;;;7.40;99.90;;;;;;5003238;28;21058;-50
2022/09/29 01:53:03;;;;;;;5.93;5.27;;;7.40;99.90;;;;;;5007488;28;20550;-49
2022/09/29 01:55:33;;;;;;;6.57;5.93;;;7.40;99.90;;;;;;5007477;28;20506;-50
2022/09/29 01:58:04;;;;;;;7.17;5.37;;;7.30;99.90;;;;;;5013716;28;20468;-50
2022/09/29 02:00:37;;;;;;;5.90;5.40;;;7.40;99.20;;;;;;5010260;28;20488;-50
2022/09/29 02:03:13;;;;;;;6.30;5.70;;;7.40;96.50;;;;;;5012052;28;20557;-49
2022/09/29 02:05:45;;;;;;;7.00;4.73;;;7.30;97.60;;;;;;5009868;28;20965;-49
2022/09/29 02:08:16;;;;;;;5.93;5.40;;;7.40;88.90;;;;;;5005837;28;20507;-49
2022/09/29 02:10:48;;;;;;;6.30;5.70;;;7.40;90.50;;;;;;5008980;28;20487;-50
2022/09/29 02:13:16;;;;;;;5.50;5.03;;;7.40;87.60;;;;;;5012802;28;20949;-50
2022/09/29 02:15:46;;;;;;;6.10;5.50;;;7.40;88.20;;;;;;5010004;28;20495;-50
2022/09/29 02:18:18;;;;;;;6.13;5.50;;;7.40;86.40;;;;;;5014800;28;20483;-50
2022/09/29 02:20:46;;;;;;;6.03;5.40;;;7.40;84.70;;;;;;5009474;28;20491;-49
2022/09/29 02:23:13;;;;;;;9.90;6.27;;;7.40;90.00;;;;;;5012442;28;20502;-49
2022/09/29 02:25:40;;;;;;;6.47;5.60;;;7.40;89.60;;;;;;5006468;28;20491;-50
2022/09/29 02:28:07;;;;;;;6.40;5.80;;;7.30;90.70;;;;;;5012558;28;20494;-50
2022/09/29 02:30:34;;;;;;;9.10;6.10;;;7.40;88.90;;;;;;5012423;28;20460;-50
2022/09/29 02:33:01;;;;;;;6.20;5.53;;;7.40;88.90;;;;;;5014866;28;20506;-50
2022/09/29 02:35:40;;;;;;;6.03;5.50;;;7.40;88.60;;;;;;5009919;28;20980;-49
2022/09/29 02:38:12;;;;;;;6.10;5.40;;;7.40;87.80;;;;;;5011207;28;20536;-49
2022/09/29 02:40:50;;;;;;;8.80;5.93;;;7.40;86.20;;;;;;5008134;28;20576;-49
2022/09/29 02:43:29;;;;;;;6.23;5.67;;;7.50;85.10;;;;;;5009359;28;20881;-50
2022/09/29 02:46:08;;;;;;;5.67;5.10;;;7.50;86.40;;;;;;5007985;28;20677;-50
2022/09/29 02:48:55;;;;;;;6.20;5.63;;;7.50;87.40;;;;;;5019606;28;20511;-50
2022/09/29 02:51:26;;;;;;;6.70;5.90;;;7.50;82.70;;;;;;5008958;28;20463;-49
2022/09/29 02:54:06;;;;;;;7.43;6.27;;;7.50;80.70;;;;;;5007188;28;20519;-49
2022/09/29 02:56:41;;;;;;;9.00;6.63;;;7.60;77.80;;;;;;5016772;28;20569;-50
2022/09/29 02:59:11;;;;;;;6.33;5.73;;;7.50;79.60;;;;;;5005555;28;20575;-49
2022/09/29 03:01:48;;;;;;;6.37;5.73;;;7.50;80.30;;;;;;5006567;28;20487;-49
2022/09/29 03:04:15;;;;;;;6.47;5.40;;;7.60;80.70;;;;;;5013952;28;20465;-50
2022/09/29 03:06:43;;;;;;;6.00;5.37;;;7.50;81.10;;;;;;5010784;28;20499;-49
2022/09/29 03:09:10;;;;;;;6.83;6.23;;;7.60;79.60;;;;;;5006320;28;20491;-50
2022/09/29 03:11:36;;;;;;;7.00;6.30;;;7.60;78.30;;;;;;5011597;28;20844;-50
2022/09/29 03:14:03;;;;;;;7.37;6.30;;;7.60;78.50;;;;;;5006457;28;20573;-50
2022/09/29 03:16:29;;;;;;;6.87;6.27;;;7.70;78.00;;;;;;5016327;28;20566;-51
2022/09/29 03:18:56;;;;;;;7.57;6.43;;;7.70;76.40;;;;;;5018354;28;20515;-50
2022/09/29 03:21:23;;;;;;;6.03;5.53;;;7.70;76.70;;;;;;5011124;28;20464;-50
2022/09/29 03:23:51;;;;;;;7.30;6.50;;;7.70;75.90;;;;;;5011101;28;20483;-50
2022/09/29 03:26:19;;;;;;;6.40;5.80;;;7.70;75.70;;;;;;5017313;28;20612;-50
2022/09/29 03:28:45;;;;;;;6.00;5.40;;;7.70;76.40;;;;;;5004162;28;20515;-50
2022/09/29 03:31:12;;;;;;;7.70;6.60;;;7.70;72.50;;;;;;5008133;28;20545;-49
2022/09/29 03:33:39;;;;;;;10.30;6.13;;;7.80;71.00;;;;;;5011614;28;20510;-50
2022/09/29 03:36:07;;;;;;;7.00;6.30;;;7.80;71.60;;;;;;5019819;28;20472;-49
2022/09/29 03:38:34;;;;;;;7.90;6.43;;;7.80;70.90;;;;;;5003355;28;20479;-49
2022/09/29 03:41:02;;;;;;;8.43;6.70;;;7.80;69.60;;;;;;5008514;28;20558;-50
2022/09/29 03:43:29;;;;;;;6.87;6.00;;;7.80;68.10;;;;;;5011843;28;20498;-50
2022/09/29 03:45:56;;;;;;;6.57;5.87;;;7.90;68.00;;;;;;5013727;28;20547;-50
2022/09/29 03:48:24;;;;;;;6.87;6.27;;;7.90;67.30;;;;;;5019296;28;20561;-50
2022/09/29 03:50:52;;;;;;;7.00;6.30;;;7.90;65.80;;;;;;5007815;28;20460;-49
2022/09/29 03:53:19;;;;;;;6.07;5.47;;;7.90;65.90;;;;;;5002476;28;20459;-50
2022/09/29 03:55:47;;;;;;;9.00;7.00;;;7.90;64.00;;;;;;5015443;28;20539;-50
2022/09/29 03:58:15;;;;;;;6.77;6.17;;;8.00;63.80;;;;;;5014334;28;21031;-49
2022/09/29 04:00:41;;;;;;;7.73;7.00;;;8.00;63.30;;;;;;5005966;28;20464;-49
2022/09/29 04:03:08;;;;;;;6.30;5.77;;;8.00;63.10;;;;;;5009603;28;20466;-49
2022/09/29 04:05:37;;;;;;;6.50;5.90;;;8.00;64.50;;;;;;5022452;28;20466;-47
2022/09/29 04:08:04;;;;;;;14.10;7.80;;;8.00;65.20;;;;;;5007798;28;20463;-48
2022/09/29 04:10:31;;;;;;;7.73;6.93;;;8.00;64.30;;;;;;5007566;28;20496;-48
2022/09/29 04:12:57;;;;;;;7.83;7.13;;;8.10;64.10;;;;;;5008872;28;20561;-47
2022/09/29 04:15:25;;;;;;;8.90;7.83;;;8.00;64.60;;;;;;5000973;28;20865;-47
2022/09/29 04:17:51;;;;;;;9.10;7.50;;;8.00;64.10;;;;;;5009774;28;20495;-48
2022/09/29 04:20:18;;;;;;;8.70;6.60;;;8.10;63.90;;;;;;5012783;28;20976;-49
2022/09/29 04:22:45;;;;;;;6.97;6.27;;;8.10;63.20;;;;;;5011576;28;20591;-49
2022/09/29 04:25:12;;;;;;;7.93;7.17;;;8.10;62.60;;;;;;5008800;28;20455;-48
2022/09/29 04:27:38;;;;;;;7.67;6.87;;;8.10;60.90;;;;;;5009150;28;20950;-48
2022/09/29 04:30:06;;;;;;;8.40;7.40;;;8.10;60.50;;;;;;5012905;28;20948;-48
2022/09/29 04:32:34;;;;;;;9.23;8.37;;;8.10;61.50;;;;;;5019109;28;20492;-49
2022/09/29 04:35:00;;;;;;;11.87;10.40;;;8.10;62.90;;;;;;5006185;28;20516;-48
2022/09/29 04:37:27;;;;;;;17.83;12.37;;;8.10;61.70;;;;;;5008730;28;20487;-48
2022/09/29 04:39:54;;;;;;;17.37;11.67;;;8.10;62.00;;;;;;5009045;28;20484;-47
2022/09/29 04:42:21;;;;;;;12.90;11.30;;;8.10;61.70;;;;;;5007484;28;20525;-48
2022/09/29 04:44:48;;;;;;;12.67;10.87;;;8.10;60.80;;;;;;5011952;28;20488;-48
2022/09/29 04:47:15;;;;;;;13.83;9.80;;;8.10;59.20;;;;;;5007369;28;20460;-48
2022/09/29 04:49:43;;;;;;;8.90;7.90;;;8.10;59.60;;;;;;5011897;28;21005;-48
2022/09/29 04:52:11;;;;;;;9.93;8.30;;;8.20;59.30;;;;;;5005387;28;20480;-48
2022/09/29 04:54:38;;;;;;;8.60;7.80;;;8.10;60.30;;;;;;5008442;28;20993;-47
2022/09/29 04:57:05;;;;;;;10.53;9.27;;;8.20;58.80;;;;;;5007083;28;20495;-48
2022/09/29 04:59:32;;;;;;;9.27;8.40;;;8.20;58.50;;;;;;5011703;28;20491;-47
2022/09/29 05:01:59;;;;;;;8.53;7.63;;;8.20;60.00;;;;;;5018447;28;20909;-48
2022/09/29 05:04:26;;;;;;;8.90;7.93;;;8.10;61.00;;;;;;5012380;28;20550;-51
2022/09/29 05:06:54;;;;;;;8.40;7.67;;;8.20;60.20;;;;;;5006197;28;20491;-51
2022/09/29 05:09:20;;;;;;;9.97;8.13;;;8.20;60.20;;;;;;5002580;28;21079;-52
2022/09/29 05:11:47;;;;;;;10.40;8.20;;;8.20;60.00;;;;;;5008156;28;20498;-50
2022/09/29 05:14:13;;;;;;;9.40;8.50;;;8.20;58.20;;;;;;5006822;28;20498;-51
2022/09/29 05:16:40;;;;;;;10.20;9.20;;;8.20;58.60;;;;;;5008378;28;20459;-50
2022/09/29 05:19:07;;;;;;;14.03;9.13;;;8.20;57.80;;;;;;5006621;28;20519;-50
2022/09/29 05:21:33;;;;;;;10.20;8.80;;;8.20;57.50;;;;;;5008367;28;20510;-50
2022/09/29 05:24:02;;;;;;;8.93;8.00;;;8.30;58.40;;;;;;5009701;28;20883;-51
2022/09/29 05:26:28;;;;;;;11.90;8.50;;;8.30;57.00;;;;;;5004488;28;20483;-50
2022/09/29 05:28:55;;;;;;;13.00;9.30;;;8.30;56.90;;;;;;5030844;22;20489;-50
2022/09/29 05:31:21;;;;;;;8.90;8.00;;;8.30;55.20;;;;;;5025662;28;20486;-50
2022/09/29 05:33:48;;;;;;;9.60;8.60;;;8.40;54.70;;;;;;5028969;28;20490;-50
2022/09/29 05:36:14;;;;;;;10.70;9.60;;;8.40;55.20;;;;;;5029174;28;20984;-50
2022/09/29 05:38:41;;;;;;;10.23;9.10;;;8.40;54.90;;;;;;5028643;28;20514;-52
2022/09/29 05:41:11;;;;;;;10.27;9.27;;;8.40;55.80;;;;;;5026706;28;20491;-50
2022/09/29 05:43:37;;;;;;;10.10;9.13;;;8.40;54.40;;;;;;5020771;28;20586;-50
2022/09/29 05:46:07;;;;;;;10.83;9.73;;;8.50;56.80;;;;;;5024373;28;20489;-50
2022/09/29 05:48:34;;;;;;;14.83;10.70;;;8.50;58.00;;;;;;5026190;28;20455;-50
2022/09/29 05:51:07;;;;;;;11.70;9.93;;;8.50;57.70;;;;;;5025820;28;20494;-50
2022/09/29 05:53:34;;;;;;;10.97;9.87;;;8.50;57.90;;;;;;5025147;28;20490;-49
2022/09/29 05:56:04;;;;;;;11.93;10.77;;;8.50;56.10;;;;;;5031269;28;20986;-49
2022/09/29 05:58:32;;;;;;;11.47;10.30;;;8.50;56.10;;;;;;5027041;28;20459;-49
2022/09/29 06:00:59;;;;;;;16.33;10.80;;;8.50;55.10;;;;;;5019669;28;20545;-50
2022/09/29 06:03:25;;;;;;;12.80;10.20;;;8.50;55.90;;;;;;5025233;28;20486;-49
2022/09/29 06:05:52;;;;;;;12.87;11.00;;;8.50;57.30;;;;;;5023351;28;20463;-50
2022/09/29 06:08:19;;;;;;;11.50;10.40;;;8.50;57.20;;;;;;5023171;28;20971;-49
2022/09/29 06:10:45;;;;;;;13.50;11.20;;;8.50;57.90;;;;;;5026194;28;20542;-49
2022/09/29 06:13:12;;;;;;;13.97;10.60;;;8.60;57.70;;;;;;5020160;28;20486;-49
2022/09/29 06:15:40;;;;;;;13.20;10.80;;;8.50;58.80;;;;;;5019947;28;20566;-50
2022/09/29 06:18:06;;;;;;;11.87;10.67;;;8.60;57.50;;;;;;5021418;28;20521;-49
2022/09/29 06:20:37;;;;;;;15.73;13.10;;;8.60;58.70;;;;;;5023483;28;20569;-50
2022/09/29 06:23:03;;;;;;;13.40;11.00;;;8.60;58.10;;;;;;5023150;28;20490;-49
2022/09/29 06:25:30;;;;;;;17.53;10.97;;;8.60;56.80;;;;;;5021394;28;20547;-50
2022/09/29 06:27:56;;;;;;;13.63;12.30;;;8.60;56.20;;;;;;5021735;28;21060;-48
2022/09/29 06:30:23;;;;;;;18.50;12.53;;;8.70;55.70;;;;;;5023946;28;20577;-49
2022/09/29 06:32:51;;;;;;;15.37;13.13;;;8.70;55.00;;;;;;5028063;28;20490;-48
2022/09/29 06:38:02;;;;;;;12.80;11.50;;;8.80;55.30;;;;;;5027994;28;20481;-49
2022/09/29 06:40:29;;;;;;;21.23;10.53;;;8.70;56.30;;;;;;5023640;28;20478;-49
2022/09/29 06:42:55;;;;;;;14.63;11.23;;;8.80;57.00;;;;;;5032116;28;20490;-51
2022/09/29 06:45:22;;;;;;;12.00;10.77;;;8.80;57.30;;;;;;5025571;28;20565;-49
2022/09/29 06:47:48;;;;;;;12.40;10.33;;;8.80;56.70;;;;;;5017235;28;20486;-49
2022/09/29 06:50:16;;;;;;;21.10;10.83;;;8.80;57.10;;;;;;5028397;28;20479;-49
2022/09/29 06:52:43;;;;;;;17.30;11.10;;;8.90;55.70;;;;;;5031391;28;20466;-49
2022/09/29 06:55:09;;;;;;;12.03;10.87;;;8.90;54.90;;;;;;5031144;28;21341;-50
2022/09/29 06:57:37;;;;;;;13.87;11.47;;;8.90;53.50;;;;;;5029479;28;20540;-50
2022/09/29 07:00:05;;;;;;;13.30;12.00;;;8.90;53.20;;;;;;5028232;28;20509;-50
2022/09/29 07:02:31;;;;;;;12.70;11.33;;;9.00;53.00;;;;;;5019529;28;21234;-50
2022/09/29 07:04:58;;;;;;;12.73;11.43;;;9.00;55.80;;;;;;5024620;28;20478;-49
2022/09/29 07:07:26;;;;;;;14.00;11.67;;;9.00;55.50;;;;;;5027845;28;20581;-48
2022/09/29 07:09:52;;;;;;;17.97;12.97;;;9.00;56.10;;;;;;5031342;28;20490;-50
2022/09/29 07:12:19;;;;;;;13.53;12.00;;;9.00;57.50;;;;;;5035980;28;20494;-49
2022/09/29 07:14:46;;;;;;;13.53;12.13;;;9.00;57.90;;;;;;5022454;28;20474;-49
2022/09/29 07:17:14;;;;;;;14.57;12.27;;;9.00;57.50;;;;;;5025598;28;20918;-49
2022/09/29 07:19:41;;;;;;;14.07;12.53;;;9.00;58.40;;;;;;5026448;28;20492;-49
2022/09/29 07:22:08;;;;;;;15.77;12.37;;;9.10;57.00;;;;;;5024496;28;20554;-49
2022/09/29 07:24:36;;;;;;;12.90;11.67;;;9.10;59.20;;;;;;5026617;28;20459;-48
2022/09/29 07:27:03;;;;;;;12.87;11.10;;;9.20;58.70;;;;;;5021734;28;20562;-49
2022/09/29 07:29:31;;;;;;;14.30;12.00;;;9.20;60.90;;;;;;5026307;28;20498;-49
2022/09/29 07:31:59;;;;;;;26.10;12.00;;;9.20;59.70;;;;;;5019333;28;20541;-49
2022/09/29 07:34:25;;;;;;;14.70;12.67;;;9.30;60.30;;;;;;5019591;28;20549;-49
2022/09/29 07:36:52;;;;;;;13.50;11.90;;;9.30;61.80;;;;;;5023251;28;20514;-49
2022/09/29 07:39:21;;;;;;;24.73;12.67;;;9.30;59.20;;;;;;5018818;28;20574;-50
2022/09/29 07:41:49;;;;;;;14.13;11.83;;;9.40;59.20;;;;;;5028792;28;20467;-50
2022/09/29 07:44:15;;;;;;;14.80;11.60;;;9.40;59.80;;;;;;5028062;28;20546;-50
2022/09/29 07:46:42;;;;;;;14.33;12.83;;;9.40;64.10;;;;;;5019477;28;20845;-50
2022/09/29 07:49:09;;;;;;;14.23;11.47;;;9.40;66.40;;;;;;5027681;28;20514;-50
2022/09/29 07:51:36;;;;;;;15.40;11.40;;;9.40;64.50;;;;;;5023539;28;20486;-50
2022/09/29 07:54:04;;;;;;;14.40;11.17;;;9.40;64.80;;;;;;5025993;28;20467;-49
2022/09/29 07:56:31;;;;;;;14.00;12.50;;;9.50;64.10;;;;;;5024024;28;20566;-49
2022/09/29 07:59:01;;;;;;;14.70;12.47;;;9.50;65.70;;;;;;5029209;28;20519;-50
2022/09/29 08:01:28;;;;;;;14.73;12.10;;;9.50;69.80;;;;;;5022084;28;20467;-50
2022/09/29 08:03:55;;;;;;;12.80;11.10;;;9.50;69.40;;;;;;5025300;28;20573;-50
2022/09/29 08:06:23;;;;;;;17.90;12.50;;;9.50;70.20;;;;;;5024313;28;21157;-48
2022/09/29 08:08:50;;;;;;;13.70;12.03;;;9.50;70.90;;;;;;5024088;28;21042;-48
2022/09/29 08:11:19;;;;;;;17.30;12.20;;;9.50;73.30;;;;;;5019619;28;20518;-48
2022/09/29 08:13:45;;;;;;;15.07;11.90;;;9.50;71.70;;;;;;5020886;28;20463;-47
2022/09/29 08:16:15;;;;;;;13.57;11.47;;;9.60;71.40;;;;;;5026931;28;21094;-48
2022/09/29 08:18:42;;;;;;;13.50;11.73;;;9.60;72.20;;;;;;5027826;28;21091;-47
2022/09/29 08:21:10;;;;;;;13.27;11.87;;;9.70;72.40;;;;;;5029285;28;20495;-48
2022/09/29 08:23:38;;;;;;;15.53;12.20;;;9.70;75.80;;;;;;5021382;28;20593;-48
2022/09/29 08:26:07;;;;;;;15.70;11.83;;;9.70;78.00;;;;;;5029801;28;20488;-48
2022/09/29 08:28:36;;;;;;;15.33;12.20;;;9.70;79.80;;;;;;5030169;28;20454;-48
2022/09/29 08:31:03;;;;;;;17.70;12.27;;;9.80;81.20;;;;;;5019399;28;20549;-48
2022/09/29 08:33:33;;;;;;;17.17;13.60;;;9.80;81.30;;;;;;5025867;28;20458;-47
2022/09/29 08:36:02;;;;;;;13.87;12.10;;;9.90;84.30;;;;;;5015742;28;20483;-47
2022/09/29 08:38:29;;;;;;;14.70;12.30;;;9.90;85.10;;;;;;5035668;28;20499;-47
2022/09/29 08:40:57;;;;;;;14.67;12.40;;;9.90;89.30;;;;;;5028924;28;20535;-47
2022/09/29 08:43:30;;;;;;;13.60;11.63;;;9.90;93.80;;;;;;5026107;28;20490;-48
2022/09/29 08:46:01;;;;;;;17.70;12.80;;;9.90;96.00;;;;;;5022175;28;20462;-48
2022/09/29 08:48:34;;;;;;;18.33;13.20;;;9.90;98.50;;;;;;5018720;28;20582;-48
2022/09/29 08:51:05;;;;;;;17.60;12.17;;;9.90;99.90;;;;;;5022775;28;20481;-47
2022/09/29 08:53:35;;;;;;;15.37;11.93;;;10.00;99.90;;;;;;5025207;28;20545;-47
2022/09/29 08:56:04;;;;;;;14.10;12.60;;;10.00;99.90;;;;;;5016005;28;20491;-47
2022/09/29 08:58:32;;;;;;;16.50;12.80;;;10.00;99.90;;;;;;5020905;28;20906;-48
2022/09/29 09:01:09;;;;;;;17.53;12.83;;;10.00;99.90;;;;;;5020619;28;20558;-47
2022/09/29 09:04:04;;;;;;;14.57;12.80;;;10.00;99.90;;;;;;5024780;28;20458;-46
2022/09/29 09:06:41;;;;;;;14.07;11.90;;;10.00;99.90;;;;;;5024406;28;20578;-47
2022/09/29 09:09:21;;;;;;;17.23;12.60;;;10.10;99.90;;;;;;5028403;28;20470;-48
2022/09/29 09:11:59;;;;;;;15.40;13.20;;;10.10;99.90;;;;;;5023971;28;20583;-48
2022/09/29 09:14:40;;;;;;;16.03;12.23;;;10.10;99.90;;;;;;5025850;28;20553;-47
2022/09/29 09:17:21;;;;;;;14.50;12.40;;;10.20;99.90;;;;;;5026532;28;20501;-48
2022/09/29 09:19:59;;;;;;;13.67;12.27;;;10.30;99.90;;;;;;5021226;28;20475;-48
2022/09/29 09:22:34;;;;;;;16.13;12.80;;;10.30;99.90;;;;;;5023498;28;20454;-48
2022/09/29 09:25:07;;;;;;;16.97;12.90;;;10.50;99.90;;;;;;5025337;28;20516;-48
2022/09/29 09:27:40;;;;;;;13.90;11.53;;;10.40;99.90;;;;;;5026924;28;20885;-48
2022/09/29 09:30:13;;;;;;;23.40;11.57;;;10.40;99.90;;;;;;5021520;28;20486;-47
2022/09/29 09:32:46;;;;;;;15.30;11.00;;;10.60;99.90;;;;;;5027794;28;20447;-48
2022/09/29 09:35:27;;;;;;;21.80;12.23;;;10.50;99.90;;;;;;5021044;28;20463;-47
2022/09/29 09:37:57;;;;;;;17.57;11.60;;;10.60;99.90;;;;;;5023078;28;20459;-47
2022/09/29 09:40:28;;;;;;;24.20;12.60;;;10.70;99.90;;;;;;5024077;28;20585;-47
2022/09/29 09:43:12;;;;;;;17.30;11.50;;;10.90;99.90;;;;;;5028302;28;20463;-47
2022/09/29 09:45:47;;;;;;;16.73;11.10;;;11.00;93.50;;;;;;5025171;28;20529;-48
2022/09/29 09:48:19;;;;;;;11.90;9.20;;;11.10;36.10;;;;;;5028967;28;20459;-47
2022/09/29 09:50:49;;;;;;;11.30;10.07;;;11.20;49.10;;;;;;5025088;28;20990;-47
2022/09/29 09:53:20;;;;;;;12.87;10.17;;;11.10;65.20;;;;;;5024690;28;20968;-47
2022/09/29 09:55:57;;;;;;;10.80;9.13;;;11.10;67.60;;;;;;5022789;28;20925;-48
2022/09/29 09:58:45;;;;;;;10.60;9.50;;;11.10;68.50;;;;;;5022425;28;20493;-47
2022/09/29 10:01:12;;;;;;;11.27;9.17;;;11.20;73.10;;;;;;5015919;28;20494;-47
2022/09/29 10:03:38;;;;;;;9.57;8.63;;;11.20;65.40;;;;;;5028751;28;20912;-48
2022/09/29 10:06:08;;;;;;;16.33;9.27;;;11.10;64.40;;;;;;5025784;28;20540;-47
2022/09/29 10:08:38;;;;;;;10.83;8.90;;;11.10;70.10;;;;;;5028220;28;20470;-48
2022/09/29 10:11:18;;;;;;;18.13;9.90;;;11.10;66.00;;;;;;5026511;28;20960;-48
2022/09/29 10:13:46;;;;;;;8.30;7.50;;;11.20;70.30;;;;;;5022506;28;20494;-47
2022/09/29 10:16:16;;;;;;;10.00;8.90;;;11.30;59.80;;;;;;5032312;28;21014;-48
2022/09/29 10:18:45;;;;;;;9.30;7.60;;;11.50;56.20;;;;;;5028806;28;20564;-48
2022/09/29 10:21:23;;;;;;;7.73;6.73;;;11.70;84.10;;;;;;5025261;28;20462;-48
2022/09/29 10:23:53;;;;;;;8.20;7.40;;;11.90;99.30;;;;;;5029284;28;20465;-48
2022/09/29 10:26:24;;;;;;;17.40;8.63;;;12.00;99.90;;;;;;5031384;28;20545;-49
2022/09/29 10:28:53;;;;;;;7.70;7.00;;;12.20;99.90;;;;;;5029750;28;21097;-48
2022/09/29 10:31:27;;;;;;;6.40;5.80;;;12.30;99.90;;;;;;5029084;28;20538;-47
2022/09/29 10:33:58;;;;;;;9.00;7.07;;;12.50;99.90;;;;;;5032388;28;20493;-47
2022/09/29 10:36:30;;;;;;;6.90;6.27;;;12.60;99.90;;;;;;5032471;28;20573;-48
2022/09/29 10:38:57;;;;;;;7.43;6.13;;;12.50;99.90;;;;;;5027808;28;20537;-49
2022/09/29 10:41:24;;;;;;;7.60;5.90;;;12.40;99.90;;;;;;5031177;28;20457;-48
2022/09/29 10:43:52;;;;;;;8.07;5.63;;;12.30;99.90;;;;;;5028261;28;20466;-47
2022/09/29 10:46:48;;;;;;;5.87;5.37;;;12.20;99.90;;;;;;5029852;28;20450;-47
2022/09/29 10:49:16;;;;;;;10.80;5.33;;;12.20;99.90;;;;;;5028752;28;20478;-47
2022/09/29 10:51:53;;;;;;;5.37;4.87;;;12.10;99.90;;;;;;5027204;28;20493;-47
2022/09/29 10:54:24;;;;;;;6.80;5.40;;;12.00;99.90;;;;;;5023458;28;20470;-47
2022/09/29 10:56:52;;;;;;;5.70;5.20;;;12.00;99.90;;;;;;5024595;28;20488;-47
2022/09/29 10:59:19;;;;;;;5.93;5.43;;;11.90;99.90;;;;;;5026011;28;20488;-47
2022/09/29 11:01:50;;;;;;;6.20;5.13;;;11.90;99.90;;;;;;5034965;28;20466;-47
2022/09/29 11:04:21;;;;;;;5.67;5.07;;;11.90;99.90;;;;;;5028570;28;20987;-47
2022/09/29 11:06:50;;;;;;;5.67;4.37;;;11.80;99.90;;;;;;5031256;28;20513;-48
2022/09/29 11:09:35;;;;;;;5.80;4.33;;;11.90;99.90;;;;;;5032489;28;20519;-48
2022/09/29 11:12:02;;;;;;;9.10;4.97;;;11.80;99.90;;;;;;5023423;28;20586;-47
2022/09/29 11:14:30;;;;;;;5.13;4.70;;;11.80;99.90;;;;;;5029422;28;20496;-47
2022/09/29 11:16:58;;;;;;;5.90;5.13;;;11.80;99.90;;;;;;5019125;28;20517;-48
2022/09/29 11:19:28;;;;;;;6.93;4.80;;;11.80;99.90;;;;;;5026945;28;20494;-48
2022/09/29 11:22:21;;;;;;;5.33;4.83;;;11.80;99.90;;;;;;5028791;28;21021;-47
2022/09/29 11:25:13;;;;;;;4.73;4.30;;;11.90;99.90;;;;;;5029276;28;20996;-47
2022/09/29 11:27:54;;;;;;;6.47;5.27;;;11.90;99.90;;;;;;5021988;28;20459;-47
2022/09/29 11:30:23;;;;;;;6.00;5.40;;;11.90;99.90;;;;;;5038174;22;20581;-47
2022/09/29 11:33:04;;;;;;;6.20;5.60;;;11.90;99.90;;;;;;5027467;28;20486;-47
2022/09/29 11:35:43;;;;;;;5.40;4.90;;;11.90;99.90;;;;;;5026655;28;20462;-47
2022/09/29 11:38:33;;;;;;;6.03;4.23;;;11.90;99.90;;;;;;5027911;28;20483;-48
2022/09/29 11:41:12;;;;;;;5.60;4.60;;;12.00;99.90;;;;;;5010848;28;20556;-47
2022/09/29 11:43:46;;;;;;;4.93;4.30;;;12.20;99.90;;;;;;5019053;28;20463;-47
2022/09/29 11:46:30;;;;;;;4.80;4.37;;;12.40;99.90;;;;;;5025444;28;20445;-48
2022/09/29 11:49:09;;;;;;;5.03;4.53;;;12.50;99.90;;;;;;5019419;28;20466;-47
2022/09/29 11:51:53;;;;;;;4.47;3.73;;;12.50;46.40;;;;;;5023100;28;20466;-47
2022/09/29 11:54:37;;;;;;;4.00;3.43;;;12.50;31.90;;;;;;5025419;28;20506;-48
2022/09/29 11:57:10;;;;;;;6.60;3.97;;;12.50;26.60;;;;;;5023721;28;20553;-47
2022/09/29 11:59:55;;;;;;;5.87;3.60;;;12.50;32.10;;;;;;5018759;28;20963;-47
2022/09/29 12:02:38;;;;;;;4.17;3.87;;;12.50;27.80;;;;;;5027013;28;20463;-47
2022/09/29 12:05:16;;;;;;;4.17;3.40;;;12.50;29.30;;;;;;5022567;28;20463;-49
2022/09/29 12:07:51;;;;;;;4.10;3.80;;;12.40;29.20;;;;;;5024984;28;20486;-47
2022/09/29 12:10:42;;;;;;;3.80;3.50;;;12.40;35.10;;;;;;5018952;28;20980;-47
2022/09/29 12:13:20;;;;;;;5.33;3.50;;;12.40;27.60;;;;;;5020270;28;20498;-47
2022/09/29 12:15:52;;;;;;;3.43;3.17;;;12.40;22.20;;;;;;5023794;28;20495;-48
2022/09/29 12:18:23;;;;;;;3.73;3.43;;;12.40;96.00;;;;;;5021162;28;20485;-48
2022/09/29 12:20:53;;;;;;;4.00;3.60;;;12.40;99.90;;;;;;5025115;28;20530;-48
2022/09/29 12:23:23;;;;;;;3.60;3.40;;;12.40;99.90;;;;;;5022884;28;20494;-47
2022/09/29 12:25:59;;;;;;;3.67;3.37;;;12.40;99.90;;;;;;5022343;28;20489;-47
2022/09/29 12:28:32;;;;;;;5.70;4.20;;;12.50;99.90;;;;;;5018797;28;20926;-48
2022/09/29 12:31:02;;;;;;;5.10;4.60;;;12.50;99.90;;;;;;5018997;28;20526;-48
2022/09/29 12:33:34;;;;;;;4.43;3.90;;;12.40;99.90;;;;;;5019380;28;20488;-47
2022/09/29 12:39:01;;;;;;;4.20;3.90;;;12.50;99.90;;;;;;5025648;28;21610;-48
2022/09/29 12:41:35;;;;;;;3.57;3.27;;;12.50;38.40;;;;;;5017180;28;20592;-47
2022/09/29 12:44:14;;;;;;;3.27;3.07;;;12.60;42.90;;;;;;5020817;28;20509;-47
2022/09/29 12:46:46;;;;;;;3.83;3.57;;;12.60;29.70;;;;;;5022732;28;20493;-48
2022/09/29 12:49:21;;;;;;;3.90;3.60;;;12.60;95.90;;;;;;5017448;28;20519;-47
2022/09/29 12:51:50;;;;;;;6.30;3.63;;;12.70;99.90;;;;;;5021781;28;20529;-48
2022/09/29 12:54:21;;;;;;;4.40;3.07;;;12.70;99.90;;;;;;5026273;28;20525;-47
2022/09/29 12:56:55;;;;;;;7.90;4.00;;;12.60;99.90;;;;;;5022433;28;20598;-48
2022/09/29 12:59:32;;;;;;;5.30;4.03;;;12.60;99.90;;;;;;5015206;28;20577;-48
2022/09/29 13:02:00;;;;;;;6.37;3.90;;;12.70;20.40;;;;;;5024597;28;20532;-47
2022/09/29 13:04:53;;;;;;;3.70;3.40;;;12.70;96.30;;;;;;5028134;28;20494;-48
2022/09/29 13:07:43;;;;;;;3.20;3.00;;;12.70;24.60;;;;;;5022816;28;20956;-48
2022/09/29 13:10:46;;;;;;;13.93;3.33;;;12.80;25.30;;;;;;5020627;28;20896;-48